createdAt,value
2022-08-01T00:00:12.416Z,13.17
2022-08-01T00:01:09.764Z,12.21
2022-08-01T00:02:07.399Z,12.65
2022-08-01T00:03:05.375Z,12.67
2022-08-01T00:04:03.621Z,12.13
2022-08-01T00:05:03.649Z,12.13
2022-08-01T00:06:00.959Z,12.40
2022-08-01T00:06:58.308Z,12.30
2022-08-01T00:07:55.686Z,11.43
2022-08-01T00:08:53.075Z,12.40
2022-08-01T00:09:50.391Z,12.27
2022-08-01T00:10:47.772Z,11.73
2022-08-01T00:11:45.120Z,12.26
2022-08-01T00:12:43.378Z,12.18
2022-08-01T00:13:40.813Z,12.12
2022-08-01T00:14:38.494Z,11.42
2022-08-01T00:15:36.085Z,11.38
2022-08-01T00:16:33.452Z,11.86
2022-08-01T00:17:30.835Z,12.79
2022-08-01T00:18:28.258Z,12.76
2022-08-01T00:19:25.615Z,11.49
2022-08-01T00:20:23.019Z,11.01
2022-08-01T00:21:20.442Z,11.18
2022-08-01T00:22:18.271Z,10.79
2022-08-01T00:23:15.721Z,10.58
2022-08-01T00:24:14.430Z,10.94
2022-08-01T00:25:13.780Z,11.39
2022-08-01T00:26:11.152Z,11.06
2022-08-01T00:27:08.519Z,11.53
2022-08-01T00:28:09.554Z,11.47
2022-08-01T00:29:11.592Z,11.62
2022-08-01T00:30:24.287Z,11.70
2022-08-01T00:31:21.611Z,10.95
2022-08-01T00:32:19.051Z,11.81
2022-08-01T00:33:16.442Z,11.52
2022-08-01T00:34:13.763Z,11.96
2022-08-01T00:35:11.696Z,11.41
2022-08-01T00:36:09.073Z,11.30
2022-08-01T00:37:06.416Z,11.51
2022-08-01T00:38:04.006Z,11.98
2022-08-01T00:39:01.414Z,11.63
2022-08-01T00:39:58.835Z,11.48
2022-08-01T00:40:56.241Z,11.79
2022-08-01T00:41:59.779Z,11.68
2022-08-01T00:42:57.438Z,11.99
2022-08-01T00:43:55.350Z,12.19
2022-08-01T00:44:52.739Z,11.21
2022-08-01T00:45:50.222Z,11.71
2022-08-01T00:46:47.549Z,11.59
2022-08-01T00:47:44.959Z,11.44
2022-08-01T00:48:42.438Z,11.95
2022-08-01T00:49:39.927Z,12.04
2022-08-01T00:50:37.495Z,11.58
2022-08-01T00:51:35.186Z,11.70
2022-08-01T00:52:33.564Z,11.25
2022-08-01T00:53:50.683Z,11.02
2022-08-01T00:54:49.137Z,11.79
2022-08-01T00:55:47.648Z,10.85
2022-08-01T00:56:45.173Z,10.82
2022-08-01T00:58:03.638Z,10.97
2022-08-01T00:59:00.352Z,11.42
2022-08-01T00:59:57.767Z,11.61
2022-08-01T01:00:56.381Z,12.20
2022-08-01T01:01:56.094Z,10.93
2022-08-01T01:02:53.610Z,11.53
2022-08-01T01:04:00.178Z,11.33
2022-08-01T01:04:58.594Z,11.32
2022-08-01T01:06:14.540Z,10.88
2022-08-01T01:07:14.646Z,10.98
2022-08-01T01:08:24.005Z,11.46
2022-08-01T01:09:41.615Z,11.41
2022-08-01T01:10:47.814Z,11.46
2022-08-01T01:12:08.600Z,11.50
2022-08-01T01:13:19.360Z,11.78
2022-08-01T01:14:32.226Z,11.58
2022-08-01T01:15:55.816Z,11.74
2022-08-01T01:16:54.863Z,11.40
2022-08-01T01:18:10.799Z,11.36
2022-08-01T01:19:14.136Z,11.92
2022-08-01T01:20:14.217Z,10.91
2022-08-01T01:21:17.657Z,11.50
2022-08-01T01:22:22.529Z,11.49
2022-08-01T01:23:42.909Z,11.51
2022-08-01T01:24:58.693Z,11.46
2022-08-01T01:26:14.619Z,10.47
2022-08-01T01:27:20.903Z,9.97
2022-08-01T01:28:28.958Z,10.52
2022-08-01T01:29:59.432Z,10.39
2022-08-01T01:30:59.819Z,10.56
2022-08-01T01:32:03.478Z,10.32
2022-08-01T01:33:03.817Z,10.59
2022-08-01T01:34:04.141Z,10.42
2022-08-01T01:35:03.540Z,10.67
2022-08-01T01:36:04.579Z,11.07
2022-08-01T01:37:11.766Z,10.46
2022-08-01T01:38:15.178Z,9.90
2022-08-01T01:39:15.213Z,9.72
2022-08-01T01:40:15.043Z,9.81
2022-08-01T01:41:15.104Z,10.47
2022-08-01T01:42:13.182Z,10.05
2022-08-01T01:43:12.560Z,9.44
2022-08-01T01:44:11.604Z,9.41
2022-08-01T01:45:09.676Z,9.47
2022-08-01T01:46:08.860Z,9.49
2022-08-01T01:47:07.409Z,10.12
2022-08-01T01:48:07.082Z,9.75
2022-08-01T01:49:06.372Z,9.61
2022-08-01T01:50:05.703Z,9.58
2022-08-01T01:51:04.524Z,9.82
2022-08-01T01:52:03.141Z,9.48
2022-08-01T01:53:02.816Z,9.85
2022-08-01T01:54:02.137Z,9.74
2022-08-01T01:55:00.830Z,9.84
2022-08-01T01:56:00.592Z,9.80
2022-08-01T01:57:01.403Z,9.95
2022-08-01T01:58:01.261Z,8.86
2022-08-01T01:59:01.302Z,8.37
2022-08-01T02:00:00.621Z,9.08
2022-08-01T02:01:00.261Z,8.93
2022-08-01T02:02:05.664Z,9.40
2022-08-01T02:03:07.078Z,9.41
2022-08-01T02:04:05.502Z,8.83
2022-08-01T02:05:03.499Z,8.57
2022-08-01T02:06:02.531Z,8.79
2022-08-01T02:07:01.809Z,8.96
2022-08-01T02:07:59.904Z,8.77
2022-08-01T02:08:58.784Z,8.60
2022-08-01T02:09:57.578Z,9.09
2022-08-01T02:11:15.454Z,9.02
2022-08-01T02:12:14.247Z,8.78
2022-08-01T02:13:12.055Z,8.68
2022-08-01T02:14:11.961Z,8.49
2022-08-01T02:15:10.696Z,8.05
2022-08-01T02:16:09.706Z,8.57
2022-08-01T02:17:07.127Z,8.63
2022-08-01T02:18:07.117Z,8.23
2022-08-01T02:19:04.741Z,8.70
2022-08-01T02:20:02.584Z,8.33
2022-08-01T02:21:01.372Z,8.22
2022-08-01T02:22:02.754Z,9.08
2022-08-01T02:23:09.847Z,8.92
2022-08-01T02:24:10.957Z,9.02
2022-08-01T02:25:21.321Z,8.85
2022-08-01T02:26:19.509Z,8.73
2022-08-01T02:27:22.985Z,8.09
2022-08-01T02:28:29.241Z,8.57
2022-08-01T02:29:34.100Z,8.76
2022-08-01T02:30:34.758Z,9.10
2022-08-01T02:31:35.502Z,8.56
2022-08-01T02:32:37.738Z,8.27
2022-08-01T02:33:39.809Z,8.36
2022-08-01T02:34:37.215Z,7.47
2022-08-01T02:36:32.468Z,8.27
2022-08-01T02:36:57.514Z,8.15
2022-08-01T02:37:57.571Z,7.96
2022-08-01T02:38:56.734Z,7.64
2022-08-01T02:39:57.117Z,7.52
2022-08-01T02:40:58.543Z,7.94
2022-08-01T02:41:58.903Z,7.62
2022-08-01T02:42:59.112Z,7.63
2022-08-01T02:44:00.181Z,7.36
2022-08-01T02:44:58.810Z,7.74
2022-08-01T02:46:00.734Z,7.50
2022-08-01T02:47:03.463Z,7.25
2022-08-01T02:48:06.253Z,7.27
2022-08-01T02:49:06.494Z,7.22
2022-08-01T02:50:05.437Z,6.87
2022-08-01T02:51:05.067Z,6.89
2022-08-01T02:52:06.591Z,7.33
2022-08-01T02:53:07.399Z,7.66
2022-08-01T02:54:06.543Z,7.54
2022-08-01T02:55:05.725Z,6.82
2022-08-01T02:56:05.645Z,6.90
2022-08-01T02:57:04.491Z,7.23
2022-08-01T02:58:05.510Z,7.19
2022-08-01T02:59:12.526Z,7.31
2022-08-01T03:00:12.212Z,6.81
2022-08-01T03:01:11.973Z,6.93
2022-08-01T03:02:11.029Z,6.78
2022-08-01T03:03:10.479Z,7.27
2022-08-01T03:04:08.790Z,6.75
2022-08-01T03:05:09.356Z,6.64
2022-08-01T03:06:08.795Z,7.40
2022-08-01T03:07:09.109Z,7.57
2022-08-01T03:08:12.083Z,7.25
2022-08-01T03:09:14.200Z,6.54
2022-08-01T03:10:17.195Z,7.06
2022-08-01T03:11:16.128Z,7.50
2022-08-01T03:12:17.509Z,6.62
2022-08-01T03:13:16.889Z,6.37
2022-08-01T03:14:15.480Z,6.34
2022-08-01T03:15:14.730Z,6.38
2022-08-01T03:16:14.117Z,6.06
2022-08-01T03:17:12.526Z,6.41
2022-08-01T03:18:11.250Z,6.69
2022-08-01T03:19:10.239Z,6.22
2022-08-01T03:20:10.303Z,6.22
2022-08-01T03:21:09.711Z,6.02
2022-08-01T03:22:13.657Z,6.00
2022-08-01T03:23:12.667Z,6.22
2022-08-01T03:24:11.161Z,6.19
2022-08-01T03:25:09.212Z,6.20
2022-08-01T03:26:07.155Z,5.85
2022-08-01T03:27:05.880Z,6.02
2022-08-01T03:28:04.744Z,6.22
2022-08-01T03:29:10.857Z,6.21
2022-08-01T03:30:08.780Z,5.74
2022-08-01T03:31:06.279Z,5.83
2022-08-01T03:32:05.066Z,5.85
2022-08-01T03:33:03.065Z,6.46
2022-08-01T03:34:04.096Z,5.88
2022-08-01T03:35:03.282Z,5.59
2022-08-01T03:36:01.930Z,5.95
2022-08-01T03:37:12.215Z,5.40
2022-08-01T03:38:16.229Z,5.60
2022-08-01T03:39:16.198Z,6.17
2022-08-01T03:40:29.674Z,5.92
2022-08-01T03:41:29.957Z,5.91
2022-08-01T03:42:37.641Z,5.59
2022-08-01T03:43:42.542Z,5.92
2022-08-01T03:44:42.359Z,5.68
2022-08-01T03:45:41.628Z,5.94
2022-08-01T03:46:44.625Z,5.58
2022-08-01T03:47:44.882Z,5.56
2022-08-01T03:48:48.127Z,5.76
2022-08-01T03:49:49.093Z,5.63
2022-08-01T03:50:52.207Z,5.61
2022-08-01T03:51:50.720Z,5.06
2022-08-01T03:52:52.041Z,4.86
2022-08-01T03:53:51.858Z,5.44
2022-08-01T03:54:52.402Z,5.59
2022-08-01T03:55:50.889Z,5.43
2022-08-01T03:56:50.973Z,5.37
2022-08-01T03:57:49.336Z,5.36
2022-08-01T03:58:50.304Z,5.31
2022-08-01T03:59:48.011Z,5.46
2022-08-01T04:00:46.777Z,4.74
2022-08-01T04:01:46.033Z,4.92
2022-08-01T04:02:44.012Z,4.86
2022-08-01T04:03:43.188Z,4.93
2022-08-01T04:04:40.761Z,5.10
2022-08-01T04:05:38.168Z,5.15
2022-08-01T04:06:38.329Z,5.24
2022-08-01T04:07:37.147Z,5.00
2022-08-01T04:08:42.218Z,5.24
2022-08-01T04:09:39.597Z,4.78
2022-08-01T04:10:39.420Z,5.07
2022-08-01T04:11:37.102Z,4.86
2022-08-01T04:12:35.801Z,4.84
2022-08-01T04:13:36.811Z,4.68
2022-08-01T04:14:34.850Z,4.46
2022-08-01T04:15:32.215Z,4.68
2022-08-01T04:16:29.651Z,4.96
2022-08-01T04:17:27.065Z,4.47
2022-08-01T04:18:24.375Z,4.54
2022-08-01T04:19:21.799Z,4.75
2022-08-01T04:20:19.155Z,4.68
2022-08-01T04:21:18.945Z,4.53
2022-08-01T04:22:16.628Z,4.67
2022-08-01T04:23:17.474Z,4.31
2022-08-01T04:24:17.929Z,4.56
2022-08-01T04:25:30.819Z,4.63
2022-08-01T04:26:29.525Z,4.41
2022-08-01T04:27:50.885Z,4.57
2022-08-01T04:28:51.067Z,4.77
2022-08-01T04:29:51.522Z,4.80
2022-08-01T04:30:52.469Z,4.63
2022-08-01T04:31:50.702Z,4.70
2022-08-01T04:32:49.309Z,4.56
2022-08-01T04:33:49.307Z,4.49
2022-08-01T04:34:48.753Z,4.98
2022-08-01T04:36:03.459Z,4.89
2022-08-01T04:37:03.463Z,4.99
2022-08-01T04:38:02.774Z,5.22
2022-08-01T04:39:02.266Z,4.55
2022-08-01T04:40:01.238Z,4.80
2022-08-01T04:40:59.310Z,4.29
2022-08-01T04:42:07.267Z,4.67
2022-08-01T04:43:05.103Z,4.60
2022-08-01T04:44:04.100Z,4.55
2022-08-01T04:45:01.880Z,4.67
2022-08-01T04:45:59.865Z,4.22
2022-08-01T04:46:57.912Z,4.82
2022-08-01T04:47:55.724Z,4.25
2022-08-01T04:48:55.975Z,4.80
2022-08-01T04:49:54.759Z,4.56
2022-08-01T04:50:52.641Z,4.33
2022-08-01T04:51:51.998Z,4.58
2022-08-01T04:52:49.408Z,4.29
2022-08-01T04:53:47.123Z,4.47
2022-08-01T04:54:44.803Z,4.26
2022-08-01T04:55:42.138Z,4.66
2022-08-01T04:56:39.505Z,4.32
2022-08-01T04:57:39.134Z,4.43
2022-08-01T04:58:36.570Z,4.58
2022-08-01T04:59:43.472Z,4.77
2022-08-01T05:00:40.874Z,4.83
2022-08-01T05:01:38.393Z,4.56
2022-08-01T05:02:35.896Z,4.84
2022-08-01T05:03:38.431Z,4.95
2022-08-01T05:04:37.717Z,4.81
2022-08-01T05:05:35.107Z,4.70
2022-08-01T05:06:32.494Z,4.40
2022-08-01T05:07:29.950Z,4.18
2022-08-01T05:08:27.286Z,4.74
2022-08-01T05:09:28.171Z,4.60
2022-08-01T05:10:28.877Z,4.70
2022-08-01T05:11:26.219Z,4.90
2022-08-01T05:12:23.584Z,4.74
2022-08-01T05:13:21.106Z,4.44
2022-08-01T05:14:18.771Z,4.54
2022-08-01T05:15:17.344Z,4.49
2022-08-01T05:16:14.747Z,4.88
2022-08-01T05:17:12.155Z,5.16
2022-08-01T05:18:09.688Z,5.15
2022-08-01T05:19:09.157Z,5.32
2022-08-01T05:20:07.592Z,4.82
2022-08-01T05:21:04.979Z,4.72
2022-08-01T05:22:05.973Z,4.79
2022-08-01T05:23:03.807Z,5.11
2022-08-01T05:24:01.159Z,5.64
2022-08-01T05:24:58.750Z,5.19
2022-08-01T05:25:58.939Z,5.34
2022-08-01T05:26:56.829Z,5.27
2022-08-01T05:27:54.199Z,5.60
2022-08-01T05:28:51.557Z,5.89
2022-08-01T05:29:49.099Z,5.89
2022-08-01T05:30:46.773Z,5.36
2022-08-01T05:31:44.109Z,5.70
2022-08-01T05:32:43.301Z,5.63
2022-08-01T05:33:40.638Z,5.82
2022-08-01T05:34:37.996Z,6.03
2022-08-01T05:35:48.694Z,5.60
2022-08-01T05:36:46.988Z,5.42
2022-08-01T05:37:44.902Z,5.80
2022-08-01T05:38:42.359Z,5.67
2022-08-01T05:39:39.726Z,6.13
2022-08-01T05:40:37.069Z,5.57
2022-08-01T05:41:34.800Z,5.71
2022-08-01T05:42:32.478Z,5.83
2022-08-01T05:43:29.871Z,5.81
2022-08-01T05:44:27.425Z,5.72
2022-08-01T05:45:24.853Z,5.81
2022-08-01T05:46:22.313Z,5.91
2022-08-01T05:47:23.578Z,5.37
2022-08-01T05:48:21.069Z,5.88
2022-08-01T05:49:18.531Z,5.79
2022-08-01T05:50:15.942Z,6.11
2022-08-01T05:51:13.281Z,5.50
2022-08-01T05:52:10.830Z,5.40
2022-08-01T05:53:08.223Z,5.45
2022-08-01T05:54:05.668Z,5.09
2022-08-01T05:55:04.862Z,5.44
2022-08-01T05:56:05.133Z,5.43
2022-08-01T05:57:02.838Z,5.38
2022-08-01T05:58:00.270Z,5.34
2022-08-01T05:58:57.756Z,5.60
2022-08-01T05:59:55.105Z,5.62
2022-08-01T06:00:52.479Z,5.23
2022-08-01T06:01:49.878Z,5.56
2022-08-01T06:02:47.239Z,5.34
2022-08-01T06:03:44.766Z,5.20
2022-08-01T06:04:42.134Z,5.42
2022-08-01T06:05:39.493Z,5.21
2022-08-01T06:06:36.918Z,5.23
2022-08-01T06:07:34.260Z,5.07
2022-08-01T06:08:35.917Z,5.10
2022-08-01T06:09:33.493Z,4.99
2022-08-01T06:10:30.864Z,4.69
2022-08-01T06:11:28.242Z,4.64
2022-08-01T06:12:25.612Z,4.25
2022-08-01T06:13:23.012Z,4.07
2022-08-01T06:14:20.411Z,4.17
2022-08-01T06:15:17.769Z,4.41
2022-08-01T06:16:15.259Z,4.21
2022-08-01T06:17:12.614Z,4.55
2022-08-01T06:18:09.949Z,4.41
2022-08-01T06:19:07.266Z,4.31
2022-08-01T06:20:05.225Z,4.24
2022-08-01T06:21:02.669Z,4.13
2022-08-01T06:22:00.079Z,4.26
2022-08-01T06:22:57.587Z,4.36
2022-08-01T06:23:58.403Z,4.45
2022-08-01T06:24:55.861Z,4.52
2022-08-01T06:25:54.721Z,4.21
2022-08-01T06:26:52.157Z,4.64
2022-08-01T06:27:50.630Z,4.17
2022-08-01T06:28:48.062Z,4.47
2022-08-01T06:29:50.373Z,4.26
2022-08-01T06:30:51.742Z,4.40
2022-08-01T06:31:49.130Z,4.58
2022-08-01T06:32:46.819Z,4.26
2022-08-01T06:33:44.155Z,4.22
2022-08-01T06:34:41.497Z,4.24
2022-08-01T06:35:38.821Z,4.53
2022-08-01T06:36:36.167Z,3.81
2022-08-01T06:37:34.118Z,4.10
2022-08-01T06:38:31.464Z,4.35
2022-08-01T06:39:28.822Z,3.65
2022-08-01T06:40:26.579Z,3.86
2022-08-01T06:41:24.596Z,3.76
2022-08-01T06:42:21.937Z,4.09
2022-08-01T06:43:20.480Z,4.16
2022-08-01T06:44:17.821Z,3.81
2022-08-01T06:45:15.851Z,4.14
2022-08-01T06:46:13.301Z,3.83
2022-08-01T06:47:10.698Z,4.14
2022-08-01T06:48:08.200Z,3.93
2022-08-01T06:49:05.741Z,4.00
2022-08-01T06:50:03.660Z,3.85
2022-08-01T06:51:09.974Z,4.10
2022-08-01T06:52:07.820Z,3.98
2022-08-01T06:53:06.170Z,3.75
2022-08-01T06:54:03.652Z,3.82
2022-08-01T06:55:01.166Z,4.03
2022-08-01T06:55:58.520Z,4.10
2022-08-01T06:56:55.845Z,3.86
2022-08-01T06:57:54.023Z,4.31
2022-08-01T06:58:51.932Z,3.90
2022-08-01T06:59:51.840Z,3.87
2022-08-01T07:00:55.924Z,3.74
2022-08-01T07:01:54.853Z,3.67
2022-08-01T07:02:53.020Z,3.62
2022-08-01T07:03:54.441Z,3.86
2022-08-01T07:04:52.391Z,4.14
2022-08-01T07:05:49.738Z,4.17
2022-08-01T07:06:47.108Z,4.24
2022-08-01T07:07:44.853Z,3.38
2022-08-01T07:08:42.197Z,3.75
2022-08-01T07:09:42.396Z,4.05
2022-08-01T07:10:39.745Z,4.05
2022-08-01T07:11:37.054Z,3.89
2022-08-01T07:12:34.900Z,4.18
2022-08-01T07:13:36.658Z,3.99
2022-08-01T07:14:41.564Z,4.03
2022-08-01T07:15:38.904Z,3.73
2022-08-01T07:16:36.310Z,3.78
2022-08-01T07:17:33.975Z,4.02
2022-08-01T07:18:31.319Z,3.85
2022-08-01T07:19:28.963Z,4.19
2022-08-01T07:20:26.344Z,3.75
2022-08-01T07:21:40.463Z,4.14
2022-08-01T07:22:38.920Z,4.25
2022-08-01T07:23:36.674Z,4.23
2022-08-01T07:24:34.314Z,4.17
2022-08-01T07:25:33.185Z,3.99
2022-08-01T07:26:30.541Z,4.31
2022-08-01T07:27:27.991Z,4.42
2022-08-01T07:28:25.603Z,4.25
2022-08-01T07:29:24.249Z,3.95
2022-08-01T07:30:21.686Z,4.14
2022-08-01T07:31:19.088Z,3.87
2022-08-01T07:32:16.422Z,3.89
2022-08-01T07:33:15.637Z,4.01
2022-08-01T07:34:12.996Z,4.21
2022-08-01T07:35:10.626Z,4.14
2022-08-01T07:36:08.010Z,3.68
2022-08-01T07:37:06.366Z,4.46
2022-08-01T07:38:03.683Z,4.13
2022-08-01T07:39:01.035Z,3.87
2022-08-01T07:39:58.495Z,4.31
2022-08-01T07:40:56.015Z,4.21
2022-08-01T07:42:06.274Z,4.01
2022-08-01T07:43:05.351Z,4.16
2022-08-01T07:44:04.878Z,4.22
2022-08-01T07:45:04.920Z,4.22
2022-08-01T07:46:02.752Z,4.17
2022-08-01T07:47:00.163Z,3.91
2022-08-01T07:47:57.490Z,3.71
2022-08-01T07:48:54.936Z,4.09
2022-08-01T07:49:52.929Z,3.65
2022-08-01T07:50:50.757Z,4.08
2022-08-01T07:52:03.534Z,3.88
2022-08-01T07:53:05.748Z,4.11
2022-08-01T07:54:03.168Z,3.89
2022-08-01T07:55:00.605Z,3.75
2022-08-01T07:55:57.954Z,3.46
2022-08-01T07:56:55.818Z,4.01
2022-08-01T07:57:55.386Z,3.81
2022-08-01T07:58:52.762Z,4.08
2022-08-01T07:59:50.393Z,3.96
2022-08-01T08:00:47.791Z,4.15
2022-08-01T08:01:45.282Z,3.89
2022-08-01T08:02:45.856Z,3.50
2022-08-01T08:03:43.200Z,4.02
2022-08-01T08:04:41.505Z,3.75
2022-08-01T08:05:57.754Z,3.65
2022-08-01T08:06:56.551Z,3.81
2022-08-01T08:07:54.169Z,3.59
2022-08-01T08:08:51.641Z,3.88
2022-08-01T08:09:51.245Z,3.47
2022-08-01T08:10:48.927Z,3.82
2022-08-01T08:11:48.292Z,3.81
2022-08-01T08:12:47.329Z,3.65
2022-08-01T08:13:44.691Z,3.52
2022-08-01T08:14:42.083Z,3.74
2022-08-01T08:15:39.749Z,3.60
2022-08-01T08:16:37.696Z,3.83
2022-08-01T08:17:35.892Z,3.78
2022-08-01T08:18:33.634Z,3.93
2022-08-01T08:19:37.252Z,3.92
2022-08-01T08:20:36.161Z,3.36
2022-08-01T08:21:33.579Z,3.46
2022-08-01T08:22:31.101Z,3.48
2022-08-01T08:23:47.840Z,3.18
2022-08-01T08:24:46.179Z,3.19
2022-08-01T08:25:44.357Z,3.22
2022-08-01T08:26:41.900Z,3.73
2022-08-01T08:27:39.916Z,3.58
2022-08-01T08:28:37.337Z,3.69
2022-08-01T08:29:35.024Z,3.54
2022-08-01T08:30:32.411Z,3.44
2022-08-01T08:31:51.447Z,3.65
2022-08-01T08:32:47.284Z,3.56
2022-08-01T08:33:44.631Z,3.42
2022-08-01T08:34:42.073Z,3.33
2022-08-01T08:35:53.602Z,3.38
2022-08-01T08:36:52.383Z,3.59
2022-08-01T08:37:49.867Z,3.63
2022-08-01T08:38:47.641Z,3.40
2022-08-01T08:39:45.189Z,3.20
2022-08-01T08:40:43.086Z,3.61
2022-08-01T08:41:40.444Z,3.43
2022-08-01T08:42:40.514Z,3.46
2022-08-01T08:43:37.959Z,3.25
2022-08-01T08:44:35.339Z,3.47
2022-08-01T08:45:59.285Z,3.30
2022-08-01T08:46:54.175Z,3.49
2022-08-01T08:47:53.333Z,3.44
2022-08-01T08:48:52.517Z,3.37
2022-08-01T08:49:51.984Z,3.32
2022-08-01T08:50:51.005Z,3.60
2022-08-01T08:51:50.080Z,3.11
2022-08-01T08:52:49.169Z,3.21
2022-08-01T08:53:48.089Z,3.28
2022-08-01T08:54:47.333Z,3.19
2022-08-01T08:55:55.770Z,3.64
2022-08-01T08:56:55.289Z,3.24
2022-08-01T08:57:53.990Z,3.25
2022-08-01T08:58:52.171Z,3.36
2022-08-01T08:59:52.977Z,3.40
2022-08-01T09:00:50.647Z,3.24
2022-08-01T09:01:48.580Z,3.38
2022-08-01T09:02:47.705Z,3.43
2022-08-01T09:03:45.275Z,3.74
2022-08-01T09:04:43.162Z,3.26
2022-08-01T09:05:40.775Z,3.21
2022-08-01T09:06:38.234Z,3.29
2022-08-01T09:07:35.609Z,3.61
2022-08-01T09:08:34.322Z,3.58
2022-08-01T09:09:32.519Z,3.73
2022-08-01T09:10:30.366Z,3.58
2022-08-01T09:11:28.362Z,3.79
2022-08-01T09:12:25.759Z,3.74
2022-08-01T09:13:23.332Z,3.91
2022-08-01T09:14:24.892Z,3.63
2022-08-01T09:15:38.558Z,3.70
2022-08-01T09:16:37.218Z,3.76
2022-08-01T09:17:41.961Z,3.36
2022-08-01T09:18:41.619Z,3.83
2022-08-01T09:19:43.307Z,3.78
2022-08-01T09:20:40.642Z,3.67
2022-08-01T09:21:38.840Z,3.68
2022-08-01T09:22:38.399Z,3.39
2022-08-01T09:23:53.639Z,3.33
2022-08-01T09:25:11.834Z,3.07
2022-08-01T09:26:17.065Z,3.48
2022-08-01T09:27:21.773Z,3.48
2022-08-01T09:28:27.825Z,3.56
2022-08-01T09:29:34.720Z,3.43
2022-08-01T09:30:40.336Z,3.70
2022-08-01T09:31:47.677Z,3.63
2022-08-01T09:32:55.471Z,3.66
2022-08-01T09:33:53.321Z,4.02
2022-08-01T09:34:50.682Z,3.73
2022-08-01T09:35:55.683Z,3.70
2022-08-01T09:37:05.679Z,3.62
2022-08-01T09:38:19.461Z,3.56
2022-08-01T09:39:16.990Z,3.33
2022-08-01T09:40:14.320Z,3.58
2022-08-01T09:41:12.531Z,3.65
2022-08-01T09:42:29.157Z,3.12
2022-08-01T09:43:28.282Z,3.64
2022-08-01T09:44:42.365Z,3.29
2022-08-01T09:45:41.638Z,3.69
2022-08-01T09:46:56.995Z,3.74
2022-08-01T09:47:54.708Z,3.53
2022-08-01T09:48:58.353Z,3.52
2022-08-01T09:49:59.210Z,3.37
2022-08-01T09:51:04.896Z,3.68
2022-08-01T09:52:17.798Z,4.05
2022-08-01T09:53:25.661Z,3.60
2022-08-01T09:54:33.937Z,3.77
2022-08-01T09:55:31.304Z,3.96
2022-08-01T09:56:37.218Z,3.82
2022-08-01T09:57:36.153Z,3.81
2022-08-01T09:58:49.504Z,3.75
2022-08-01T09:59:58.240Z,3.99
2022-08-01T10:01:01.324Z,3.43
2022-08-01T10:01:58.674Z,4.14
2022-08-01T10:02:56.517Z,3.70
2022-08-01T10:04:15.194Z,3.95
2022-08-01T10:05:21.073Z,4.03
2022-08-01T10:06:25.007Z,4.06
2022-08-01T10:07:27.674Z,3.63
2022-08-01T10:08:49.489Z,4.28
2022-08-01T10:09:47.682Z,4.02
2022-08-01T10:11:04.942Z,3.81
2022-08-01T10:12:03.841Z,3.86
2022-08-01T10:13:01.247Z,3.90
2022-08-01T10:14:03.352Z,3.61
2022-08-01T10:15:01.303Z,3.80
2022-08-01T10:15:59.606Z,3.98
2022-08-01T10:17:03.005Z,4.09
2022-08-01T10:18:05.147Z,4.01
2022-08-01T10:19:15.390Z,4.30
2022-08-01T10:20:29.768Z,3.79
2022-08-01T10:21:54.711Z,4.06
2022-08-01T10:22:47.654Z,3.94
2022-08-01T10:23:46.239Z,4.03
2022-08-01T10:24:48.989Z,3.47
2022-08-01T10:25:49.866Z,3.82
2022-08-01T10:26:53.287Z,3.96
2022-08-01T10:27:53.219Z,3.98
2022-08-01T10:28:53.493Z,3.98
2022-08-01T10:30:06.079Z,4.08
2022-08-01T10:31:12.688Z,4.23
2022-08-01T10:32:12.244Z,4.21
2022-08-01T10:33:11.175Z,4.25
2022-08-01T10:34:19.581Z,4.52
2022-08-01T10:35:45.692Z,4.23
2022-08-01T10:36:40.900Z,4.19
2022-08-01T10:37:52.027Z,3.95
2022-08-01T10:38:50.545Z,4.15
2022-08-01T10:39:48.322Z,4.13
2022-08-01T10:40:46.572Z,4.35
2022-08-01T10:41:44.190Z,4.15
2022-08-01T10:42:44.828Z,4.33
2022-08-01T10:43:42.511Z,4.02
2022-08-01T10:44:48.909Z,4.09
2022-08-01T10:45:46.511Z,4.15
2022-08-01T10:46:49.608Z,3.71
2022-08-01T10:47:57.613Z,3.96
2022-08-01T10:49:07.963Z,4.08
2022-08-01T10:50:15.025Z,4.06
2022-08-01T10:51:21.599Z,4.60
2022-08-01T10:52:19.525Z,4.38
2022-08-01T10:53:23.220Z,4.28
2022-08-01T10:54:25.696Z,4.28
2022-08-01T10:55:24.396Z,4.10
2022-08-01T10:56:27.071Z,4.37
2022-08-01T10:57:27.648Z,4.26
2022-08-01T10:58:42.538Z,4.50
2022-08-01T11:00:01.029Z,4.63
2022-08-01T11:01:18.134Z,4.61
2022-08-01T11:02:31.999Z,4.96
2022-08-01T11:03:55.961Z,4.34
2022-08-01T11:05:01.943Z,4.16
2022-08-01T11:06:04.676Z,4.17
2022-08-01T11:07:02.590Z,4.49
2022-08-01T11:08:04.401Z,4.32
2022-08-01T11:09:22.174Z,4.22
2022-08-01T11:10:38.042Z,4.50
2022-08-01T11:11:57.095Z,4.56
2022-08-01T11:12:55.732Z,3.92
2022-08-01T11:14:09.475Z,4.38
2022-08-01T11:15:08.500Z,4.74
2022-08-01T11:16:28.874Z,4.26
2022-08-01T11:17:37.654Z,4.11
2022-08-01T11:18:50.984Z,4.53
2022-08-01T11:20:07.785Z,4.52
2022-08-01T11:21:59.092Z,4.61
2022-08-01T11:22:25.503Z,4.78
2022-08-01T11:23:23.369Z,4.88
2022-08-01T11:24:39.494Z,4.75
2022-08-01T11:26:05.731Z,5.00
2022-08-01T11:27:12.648Z,4.66
2022-08-01T11:28:15.580Z,4.85
2022-08-01T11:29:20.401Z,4.58
2022-08-01T11:30:18.242Z,4.88
2022-08-01T11:31:21.897Z,5.17
2022-08-01T11:32:25.718Z,4.57
2022-08-01T11:33:45.618Z,4.68
2022-08-01T11:34:54.309Z,5.37
2022-08-01T11:36:10.122Z,5.23
2022-08-01T11:37:30.753Z,5.50
2022-08-01T11:38:30.976Z,5.17
2022-08-01T11:39:29.395Z,5.21
2022-08-01T11:40:28.887Z,5.15
2022-08-01T11:41:38.248Z,5.24
2022-08-01T11:42:36.762Z,5.37
2022-08-01T11:43:34.171Z,5.03
2022-08-01T11:44:48.857Z,5.29
2022-08-01T11:45:48.549Z,5.28
2022-08-01T11:46:56.759Z,5.26
2022-08-01T11:47:54.453Z,5.36
2022-08-01T11:49:11.820Z,5.75
2022-08-01T11:50:30.212Z,5.52
2022-08-01T11:51:28.176Z,5.56
2022-08-01T11:52:31.098Z,5.46
2022-08-01T11:53:28.727Z,5.33
2022-08-01T11:54:34.738Z,5.36
2022-08-01T11:55:35.759Z,5.23
2022-08-01T11:56:34.270Z,5.47
2022-08-01T11:57:36.205Z,5.64
2022-08-01T11:58:34.740Z,5.15
2022-08-01T11:59:41.467Z,5.16
2022-08-01T12:00:59.037Z,5.08
2022-08-01T12:01:56.559Z,5.52
2022-08-01T12:03:05.303Z,5.32
2022-08-01T12:04:02.775Z,5.32
2022-08-01T12:05:08.465Z,5.56
2022-08-01T12:06:09.216Z,5.36
2022-08-01T12:07:14.537Z,5.63
2022-08-01T12:08:11.901Z,5.81
2022-08-01T12:09:23.234Z,5.66
2022-08-01T12:10:22.143Z,5.80
2022-08-01T12:11:19.616Z,5.39
2022-08-01T12:12:18.865Z,5.45
2022-08-01T12:13:16.280Z,5.47
2022-08-01T12:14:17.110Z,5.33
2022-08-01T12:15:14.598Z,4.81
2022-08-01T12:16:12.646Z,5.42
2022-08-01T12:17:10.102Z,5.31
2022-08-01T12:18:08.207Z,5.38
2022-08-01T12:19:06.597Z,5.56
2022-08-01T12:20:13.277Z,5.15
2022-08-01T12:21:10.791Z,5.15
2022-08-01T12:22:08.194Z,5.16
2022-08-01T12:23:08.405Z,5.32
2022-08-01T12:24:05.900Z,5.00
2022-08-01T12:25:07.496Z,4.91
2022-08-01T12:26:05.136Z,5.53
2022-08-01T12:27:02.781Z,5.20
2022-08-01T12:28:01.580Z,5.51
2022-08-01T12:28:58.992Z,5.47
2022-08-01T12:29:57.656Z,5.17
2022-08-01T12:30:55.854Z,5.26
2022-08-01T12:31:53.227Z,5.14
2022-08-01T12:32:50.979Z,4.92
2022-08-01T12:33:48.389Z,5.29
2022-08-01T12:34:46.718Z,5.14
2022-08-01T12:35:44.096Z,5.35
2022-08-01T12:36:41.506Z,5.11
2022-08-01T12:37:44.955Z,4.89
2022-08-01T12:38:42.358Z,5.24
2022-08-01T12:39:40.332Z,5.58
2022-08-01T12:40:45.042Z,4.74
2022-08-01T12:41:44.883Z,5.04
2022-08-01T12:42:43.254Z,5.40
2022-08-01T12:43:41.206Z,4.97
2022-08-01T12:44:40.175Z,4.75
2022-08-01T12:45:54.393Z,5.17
2022-08-01T12:46:55.046Z,4.90
2022-08-01T12:47:54.164Z,4.80
2022-08-01T12:48:51.767Z,4.73
2022-08-01T12:49:50.273Z,5.29
2022-08-01T12:50:51.187Z,5.00
2022-08-01T12:51:57.144Z,4.81
2022-08-01T12:52:55.657Z,5.01
2022-08-01T12:53:53.056Z,5.35
2022-08-01T12:55:11.540Z,5.03
2022-08-01T12:56:11.545Z,5.03
2022-08-01T12:57:22.737Z,4.72
2022-08-01T12:58:20.376Z,5.30
2022-08-01T12:59:26.220Z,5.30
2022-08-01T13:00:25.309Z,4.92
2022-08-01T13:01:26.773Z,5.30
2022-08-01T13:02:32.526Z,4.91
2022-08-01T13:03:29.906Z,4.75
2022-08-01T13:04:27.240Z,4.93
2022-08-01T13:05:25.830Z,4.66
2022-08-01T13:06:24.195Z,4.80
2022-08-01T13:07:21.722Z,5.04
2022-08-01T13:08:20.507Z,4.65
2022-08-01T13:09:18.038Z,4.85
2022-08-01T13:10:16.594Z,5.11
2022-08-01T13:11:15.937Z,5.33
2022-08-01T13:12:14.107Z,5.20
2022-08-01T13:13:12.123Z,4.75
2022-08-01T13:14:29.230Z,5.10
2022-08-01T13:15:28.831Z,5.35
2022-08-01T13:16:43.295Z,4.95
2022-08-01T13:17:45.389Z,4.67
2022-08-01T13:18:48.984Z,5.16
2022-08-01T13:19:48.194Z,4.75
2022-08-01T13:20:45.589Z,4.63
2022-08-01T13:21:57.197Z,5.03
2022-08-01T13:22:54.797Z,4.99
2022-08-01T13:24:08.254Z,4.55
2022-08-01T13:25:14.568Z,4.78
2022-08-01T13:26:12.810Z,5.09
2022-08-01T13:27:21.128Z,5.24
2022-08-01T13:28:20.271Z,4.77
2022-08-01T13:29:21.842Z,4.93
2022-08-01T13:30:20.421Z,4.91